Weather reports worldwide

Advertisment
Chiavari, Italy (16123): temperature & dewpoint: 14.01.2021 14:00:00 - 20.01.2021 14:00:00 (CET)Chiavari, Italy (16123): wind speed: 14.01.2021 14:00:00 - 20.01.2021 14:00:00 (CET)Chiavari, Italy (16123): wind direction: 14.01.2021 14:00:00 - 20.01.2021 14:00:00 (CET)Chiavari, Italy (16123): reduced air pressure: 14.01.2021 14:00:00 - 20.01.2021 14:00:00 (CET)Chiavari, Italy (16123): precipitation: 14.01.2021 14:00:00 - 20.01.2021 14:00:00 (CET)
Date & Time tt [°C] td [°C] ff [km/h] ff [kn] dd ppp [hPa] rr [mm]
20.01.2021 14:00:00 - - - - - - -
20.01.2021 13:00:00 11,6 9,7 2 1 N 1019,7 -
20.01.2021 12:00:00 10,9 9,6 4 2 NE 1020,7 -
20.01.2021 11:00:00 10,6 9,3 4 2 NE 1021,2 -
20.01.2021 10:00:00 10,6 9,3 0 0 N 1021,0 -
20.01.2021 09:00:00 10,1 8,7 0 0 N 1020,6 -
20.01.2021 08:00:00 10,1 8,5 4 2 NNE 1020,2 -
20.01.2021 07:00:00 10,9 9,0 4 2 NNE 1020,1 -
20.01.2021 06:00:00 11,1 9,2 9 5 S 1020,2 -
20.01.2021 05:00:00 11,6 9,1 18 10 SW 1020,2 -
20.01.2021 04:00:00 10,7 9,1 15 8 SSW 1020,6 -
20.01.2021 03:00:00 8,7 7,6 5 3 NE 1021,1 -
20.01.2021 02:00:00 8,2 7,0 5 3 NW 1021,4 -
20.01.2021 01:00:00 8,0 6,8 8 4 N 1022,3 -
20.01.2021 00:00:00 8,3 7,1 8 4 NNE 1022,4 -
19.01.2021 23:00:00 8,2 7,0 4 2 E 1022,8 -
19.01.2021 22:00:00 8,1 6,7 5 3 NNE 1022,9 -
19.01.2021 21:00:00 8,6 7,2 5 3 NE 1023,1 -
19.01.2021 20:00:00 8,9 7,3 4 2 ENE 1023,2 -
19.01.2021 19:00:00 8,9 7,3 5 3 ENE 1023,1 -
19.01.2021 18:00:00 9,0 7,4 5 3 ENE 1023,0 -
19.01.2021 17:00:00 9,5 7,6 5 3 NNE 1023,1 -
19.01.2021 16:00:00 10,4 7,4 2 1 NNW 1023,2 -
19.01.2021 15:00:00 11,1 6,4 8 4 SSW 1023,2 -
19.01.2021 14:00:00 12,1 6,5 9 5 SE 1023,6 -
19.01.2021 13:00:00 9,3 6,9 4 2 NW 1024,6 -
19.01.2021 12:00:00 7,9 6,3 8 4 NE 1025,2 -
19.01.2021 11:00:00 6,2 4,2 8 4 NNE 1025,7 -
19.01.2021 10:00:00 5,1 3,3 8 4 NE 1025,8 -
19.01.2021 09:00:00 4,6 2,8 11 6 E 1025,4 -
19.01.2021 08:00:00 4,0 2,3 13 7 NE 1025,1 -
19.01.2021 07:00:00 3,8 2,0 11 6 NNE 1025,1 0,0
19.01.2021 06:00:00 3,5 1,7 11 6 ENE 1024,9 -
19.01.2021 05:00:00 3,5 1,3 11 6 NE 1025,0 -
19.01.2021 04:00:00 3,3 1,2 13 7 E 1024,9 -
19.01.2021 03:00:00 3,2 1,2 13 7 NE 1025,2 -
19.01.2021 02:00:00 2,8 1,0 16 9 NE 1024,9 -
19.01.2021 01:00:00 2,9 1,2 16 9 NE 1025,1 0,0
19.01.2021 00:00:00 3,3 1,6 15 8 ENE 1025,5 -
18.01.2021 23:00:00 3,6 2,1 15 8 ENE 1025,1 -
18.01.2021 22:00:00 4,0 2,5 13 7 NNE 1025,2 -
18.01.2021 21:00:00 4,5 2,8 11 6 NNE 1024,8 -
18.01.2021 20:00:00 5,4 3,5 11 6 NE 1024,7 -
18.01.2021 19:00:00 6,0 3,8 8 4 NE 1024,3 0,0
18.01.2021 18:00:00 7,3 4,4 5 3 N 1023,8 -
18.01.2021 17:00:00 10,2 4,7 2 1 NE 1023,2 -
18.01.2021 16:00:00 10,5 4,6 4 2 S 1023,1 -
18.01.2021 15:00:00 10,5 4,1 8 4 SSW 1023,1 -
18.01.2021 14:00:00 11,0 3,5 8 4 S 1022,9 -
18.01.2021 13:00:00 11,6 5,6 9 5 SSW 1023,0 0,0
18.01.2021 12:00:00 8,8 2,3 4 2 NNW 1023,5 -
18.01.2021 11:00:00 6,3 1,2 5 3 NE 1023,9 -
18.01.2021 10:00:00 4,1 0,6 11 6 E 1023,5 -
18.01.2021 09:00:00 2,5 -0,1 13 7 NNE 1023,1 -
18.01.2021 08:00:00 2,5 0,0 11 6 NNE 1022,4 -
18.01.2021 07:00:00 2,2 0,1 13 7 NE 1021,9 0,0
18.01.2021 06:00:00 2,6 0,5 15 8 NE 1021,3 -
18.01.2021 05:00:00 2,8 0,2 11 6 E 1020,3 -
18.01.2021 04:00:00 3,4 0,6 9 5 NNE 1020,3 -
18.01.2021 03:00:00 4,0 0,8 8 4 NE 1019,9 -
18.01.2021 02:00:00 5,1 1,0 5 3 NNE 1018,9 -
18.01.2021 01:00:00 6,1 -0,3 2 1 S 1018,0 0,0
18.01.2021 00:00:00 6,6 0,8 16 9 NNE 1017,5 -
17.01.2021 23:00:00 5,5 3,1 11 6 ENE 1017,2 -
17.01.2021 22:00:00 5,6 4,1 8 4 NE 1016,8 -
17.01.2021 21:00:00 6,3 4,6 9 5 NE 1015,8 -
17.01.2021 20:00:00 7,2 5,2 5 3 NE 1015,0 -
17.01.2021 19:00:00 8,1 5,5 4 2 NNE 1014,3 -
17.01.2021 18:00:00 9,4 5,7 4 2 NNE 1013,5 -
17.01.2021 17:00:00 10,5 5,4 4 2 S 1012,8 -
17.01.2021 16:00:00 10,9 4,9 4 2 S 1012,6 -
17.01.2021 15:00:00 11,3 3,7 8 4 SSE 1012,3 -
17.01.2021 14:00:00 11,8 4,0 5 3 WSW 1012,7 -
17.01.2021 13:00:00 11,3 4,0 5 3 SSE 1013,1 -
17.01.2021 12:00:00 9,3 6,2 4 2 E 1013,4 -
17.01.2021 11:00:00 8,6 5,7 5 3 E 1013,4 -
17.01.2021 10:00:00 7,5 5,1 11 6 NE 1013,5 -
17.01.2021 09:00:00 6,2 4,3 9 5 NNE 1013,6 -
17.01.2021 08:00:00 6,1 4,4 11 6 ENE 1013,6 -
17.01.2021 07:00:00 5,5 4,1 8 4 NE 1013,8 -
17.01.2021 06:00:00 5,6 4,2 5 3 ENE 1014,2 -
17.01.2021 05:00:00 5,1 3,9 8 4 ENE 1014,7 -
17.01.2021 04:00:00 4,4 2,9 5 3 NE 1015,7 -
17.01.2021 03:00:00 4,6 2,6 9 5 NNE 1016,9 -
17.01.2021 02:00:00 4,8 1,2 8 4 NE 1017,3 -
17.01.2021 01:00:00 4,6 1,0 8 4 ENE 1017,9 0,0
17.01.2021 00:00:00 4,5 0,8 9 5 NE 1018,6 -
16.01.2021 23:00:00 4,3 0,9 11 6 NE 1019,4 -
16.01.2021 22:00:00 4,0 0,6 11 6 NNE 1020,2 -
16.01.2021 21:00:00 4,0 0,8 11 6 E 1020,6 -
16.01.2021 20:00:00 4,3 0,9 9 5 ENE 1020,6 -
16.01.2021 19:00:00 5,5 1,4 11 6 NE 1020,4 0,0
16.01.2021 18:00:00 6,3 1,4 5 3 NE 1020,3 -
16.01.2021 17:00:00 9,3 -0,7 0 0 N 1019,8 -
16.01.2021 16:00:00 10,6 -1,0 4 2 SW 1019,5 -
16.01.2021 15:00:00 10,4 -1,4 5 3 SW 1019,4 -
16.01.2021 14:00:00 10,5 -2,0 8 4 WSW 1019,7 -
16.01.2021 13:00:00 10,2 -3,3 8 4 S 1020,6 0,0
16.01.2021 12:00:00 8,9 -5,1 5 3 NNE 1021,3 -
16.01.2021 11:00:00 6,6 -4,0 11 6 N 1021,5 -
16.01.2021 10:00:00 4,3 -2,9 11 6 NE 1021,1 -
16.01.2021 09:00:00 2,5 -2,1 21 11 NE 1020,6 -
16.01.2021 08:00:00 2,5 -2,5 15 8 NE 1020,5 -
16.01.2021 07:00:00 3,1 -2,3 15 8 NE 1019,9 0,0
16.01.2021 06:00:00 3,9 -2,4 16 9 NNE 1019,4 -
16.01.2021 05:00:00 5,0 -4,2 15 8 NNE 1018,9 -
16.01.2021 04:00:00 5,9 -4,4 11 6 NE 1018,5 -
16.01.2021 03:00:00 7,0 -4,2 11 6 NE 1018,3 -
16.01.2021 02:00:00 6,9 -3,5 16 9 N 1017,8 -
16.01.2021 01:00:00 7,6 -3,4 15 8 N 1017,6 0,0
16.01.2021 00:00:00 8,0 -3,0 24 13 NNE 1017,5 -
15.01.2021 23:00:00 8,4 -2,1 28 15 NE 1016,8 -
15.01.2021 22:00:00 8,6 -3,1 15 8 ENE 1016,4 -
15.01.2021 21:00:00 8,5 -1,7 5 3 NE 1015,6 -
15.01.2021 20:00:00 9,7 -2,1 15 8 NNE 1014,8 -
15.01.2021 19:00:00 9,3 -2,1 9 5 N 1014,1 0,0
15.01.2021 18:00:00 9,7 -2,7 13 7 NNE 1013,5 -
15.01.2021 17:00:00 10,6 -2,9 11 6 NE 1013,2 -
15.01.2021 16:00:00 11,1 -2,8 11 6 ENE 1012,8 -
15.01.2021 15:00:00 11,6 -2,0 11 6 NNE 1012,4 -
15.01.2021 14:00:00 11,7 -1,9 15 8 E 1012,6 -
15.01.2021 13:00:00 11,6 -2,0 15 8 NE 1013,2 0,0
15.01.2021 12:00:00 10,3 -1,5 9 5 E 1013,8 -
15.01.2021 11:00:00 7,7 3,5 11 6 NE 1014,0 -
15.01.2021 10:00:00 6,3 4,1 9 5 NE 1013,4 -
15.01.2021 09:00:00 6,1 4,4 11 6 N 1012,6 -
15.01.2021 08:00:00 6,2 4,8 8 4 NE 1012,4 -
15.01.2021 07:00:00 6,9 5,5 8 4 NNE 1012,0 -
15.01.2021 06:00:00 7,4 5,7 9 5 NNE 1011,9 -
15.01.2021 05:00:00 8,2 6,6 4 2 E 1012,0 -
15.01.2021 04:00:00 7,7 6,5 9 5 NE 1011,5 -
15.01.2021 03:00:00 7,6 6,0 5 3 E 1011,3 -
15.01.2021 02:00:00 7,9 5,5 8 4 NE 1011,1 -
15.01.2021 01:00:00 7,5 5,6 13 7 ENE 1011,5 0,0
15.01.2021 00:00:00 6,8 4,9 11 6 NE 1011,7 -
14.01.2021 23:00:00 6,9 5,4 11 6 ENE 1011,5 -
14.01.2021 22:00:00 7,1 5,5 8 4 NE 1011,1 -
14.01.2021 21:00:00 7,6 5,7 11 6 NE 1010,6 -
14.01.2021 20:00:00 7,9 6,2 9 5 ENE 1009,8 -
14.01.2021 19:00:00 8,6 6,7 8 4 ENE 1009,4 0,0
14.01.2021 18:00:00 10,1 7,1 8 4 NNE 1008,8 -
14.01.2021 17:00:00 13,4 8,8 4 2 WSW 1008,6 -
14.01.2021 16:00:00 14,3 8,9 8 4 SSW 1008,4 -
14.01.2021 15:00:00 14,3 8,0 9 5 S 1007,8 -
14.01.2021 14:00:00 14,2 7,9 8 4 SW 1008,1 -

tt = temperature
td = dewpoint
ff = wind speed
dd = wind direction
ppp = reduced air pressure
rr = precipitation

Next stations